KEVB/EVB METAR and TAF weather

Enter ICAO airport designator
Station Type Date Time Source
KEVB METAR 2019/04/25 01:47 UTC NOAA

KEVB 250147Z 17004KT 10SM CLR 22/16 A3003 RMK LAST


Station Type Date Time Source
KEVB Decoded METAR 2019/04/25 01:47 UTC NOAA

New Smyrna Beach, New Smyrna Beach Municipal Airport, FL, United States (KEVB) 29-03-20N 080-56-54W
Apr 24, 2019 - 09:47 PM EDT / 2019.04.25 0147 UTC
Wind: from the S (170 degrees) at 5 MPH (4 KT):0
Visibility: 10 mile(s):0
Sky conditions: clear
Temperature: 71 F (22 C)
Dew Point: 60 F (16 C)
Relative Humidity: 68%
Pressure (altimeter): 30.03 in. Hg (1016 hPa)
ob: KEVB 250147Z 17004KT 10SM CLR 22/16 A3003 RMK LAST
cycle: 2

Station Type Date Time Source
KEVB TAF UTC NOAA

Error!

Example: see airport list